Time;durP1;ratioP1;P1;durP2;ratioP2;P2;SDS_P1;SDS_P2;PMS_P1;PMS_P2;Temp;Humidity;BMP_temperature;BMP_pressure;BME280_temperature;BME280_humidity;BME280_pressure;Samples;Min_cycle;Max_cycle;Signal;HPM_P1;HPM_P2
2023/08/16 00:01:21;;;;;;;6.00;5.37;;;;;;;21.77;100.00;98405.84;4157209;28;20728;-74
2023/08/16 00:03:25;;;;;;;6.13;5.40;;;;;;;21.76;100.00;98398.03;4168771;28;20747;-75
2023/08/16 00:05:29;;;;;;;6.70;5.73;;;;;;;21.74;100.00;98397.38;4155070;28;20691;-75
2023/08/16 00:07:34;;;;;;;5.50;4.87;;;;;;;21.72;100.00;98399.34;4173638;28;20674;-76
2023/08/16 00:09:37;;;;;;;7.73;5.40;;;;;;;21.71;100.00;98389.75;4173207;28;20634;-83
2023/08/16 00:11:41;;;;;;;5.80;4.73;;;;;;;21.69;100.00;98386.41;4177063;28;20627;-83
2023/08/16 00:13:43;;;;;;;6.43;4.90;;;;;;;21.68;100.00;98392.72;4167793;28;21012;-83
2023/08/16 00:15:47;;;;;;;6.60;5.50;;;;;;;21.67;100.00;98392.88;4172172;28;20633;-83
2023/08/16 00:17:50;;;;;;;5.80;5.20;;;;;;;21.65;100.00;98400.16;4169965;28;20667;-82
2023/08/16 00:19:53;;;;;;;7.30;5.10;;;;;;;21.63;100.00;98389.72;4168975;28;20625;-84
2023/08/16 00:21:57;;;;;;;6.50;5.77;;;;;;;21.62;100.00;98393.38;4170688;28;20647;-82
2023/08/16 00:24:01;;;;;;;6.53;5.37;;;;;;;21.61;100.00;98394.38;4170452;28;20654;-82
2023/08/16 00:26:04;;;;;;;5.93;5.10;;;;;;;21.61;100.00;98398.88;4171327;28;21258;-83
2023/08/16 00:28:07;;;;;;;8.57;5.60;;;;;;;21.59;100.00;98396.38;4171589;28;20623;-83
2023/08/16 00:30:11;;;;;;;8.50;5.83;;;;;;;21.59;100.00;98396.38;4176364;28;21199;-80
2023/08/16 00:32:16;;;;;;;6.77;6.00;;;;;;;21.59;100.00;98399.03;4154061;28;20679;-83
2023/08/16 00:34:19;;;;;;;5.80;5.20;;;;;;;21.57;100.00;98398.34;4177705;28;21114;-82
2023/08/16 00:36:22;;;;;;;6.63;5.93;;;;;;;21.56;100.00;98409.97;4172109;28;20662;-83
2023/08/16 00:38:25;;;;;;;6.90;6.27;;;;;;;21.51;100.00;98406.16;4174295;28;20637;-82
2023/08/16 00:40:29;;;;;;;6.37;5.47;;;;;;;21.46;100.00;98396.00;4173651;28;20665;-84
2023/08/16 00:42:32;;;;;;;7.07;6.37;;;;;;;21.44;100.00;98395.31;4176907;28;20636;-83
2023/08/16 00:44:35;;;;;;;7.37;6.30;;;;;;;21.42;100.00;98392.00;4169120;28;20628;-84
2023/08/16 00:46:39;;;;;;;7.63;6.07;;;;;;;21.39;100.00;98392.34;4169803;28;20728;-82
2023/08/16 00:48:44;;;;;;;8.00;6.30;;;;;;;21.39;100.00;98389.69;4151823;28;20637;-82
2023/08/16 00:50:48;;;;;;;6.70;6.00;;;;;;;21.38;100.00;98393.31;4175270;28;20628;-82
2023/08/16 00:52:53;;;;;;;7.70;5.93;;;;;;;21.39;100.00;98396.81;4156274;28;20632;-83
2023/08/16 00:54:57;;;;;;;7.20;5.87;;;;;;;21.38;100.00;98398.63;4167522;28;20664;-83
2023/08/16 00:57:01;;;;;;;6.97;6.00;;;;;;;21.37;100.00;98390.84;4176105;28;20618;-83
2023/08/16 00:59:05;;;;;;;7.23;6.20;;;;;;;21.33;100.00;98387.69;4155165;28;21039;-84
2023/08/16 01:01:09;;;;;;;8.30;5.30;;;;;;;21.33;100.00;98385.03;4168455;28;21031;-83
2023/08/16 01:03:12;;;;;;;5.90;5.23;;;;;;;21.30;100.00;98385.34;4175357;28;20654;-82
2023/08/16 01:05:17;;;;;;;5.80;5.20;;;;;;;21.29;100.00;98377.56;4170247;28;20710;-83
2023/08/16 01:07:19;;;;;;;10.07;5.70;;;;;;;21.23;100.00;98366.75;4153690;28;21043;-81
2023/08/16 01:09:23;;;;;;;7.60;5.37;;;;;;;21.17;100.00;98367.41;4177251;28;20675;-83
2023/08/16 01:11:30;;;;;;;6.00;5.30;;;;;;;21.14;100.00;98373.03;4166561;28;20620;-82
2023/08/16 01:13:36;;;;;;;7.03;6.33;;;;;;;21.10;100.00;98364.56;4171522;28;20622;-83
2023/08/16 01:15:42;;;;;;;5.73;5.23;;;;;;;21.10;100.00;98364.56;4160679;28;20668;-83
2023/08/16 01:17:45;;;;;;;6.50;5.77;;;;;;;21.07;100.00;98356.13;4176868;28;21025;-75
2023/08/16 01:19:49;;;;;;;5.90;5.40;;;;;;;21.05;100.00;98358.94;4176788;28;20622;-82
2023/08/16 01:22:00;;;;;;;8.50;6.30;;;;;;;21.05;100.00;98360.75;4169646;28;20655;-84
2023/08/16 01:24:07;;;;;;;6.93;6.10;;;;;;;21.03;100.00;98360.94;4170230;28;20616;-83
2023/08/16 01:26:23;;;;;;;7.23;6.50;;;;;;;21.05;100.00;98360.75;4168083;28;20631;-83
2023/08/16 01:28:27;;;;;;;7.37;6.20;;;;;;;21.08;100.00;98353.31;4160842;28;20635;-82
2023/08/16 01:30:30;;;;;;;6.67;5.90;;;;;;;21.11;100.00;98352.13;4168938;28;20632;-83
2023/08/16 01:32:34;;;;;;;6.70;6.00;;;;;;;21.09;100.00;98349.63;4156769;28;20644;-82
2023/08/16 01:34:37;;;;;;;6.90;5.70;;;;;;;21.03;100.00;98344.16;4171772;28;20766;-82
2023/08/16 01:36:40;;;;;;;9.10;6.27;;;;;;;20.96;100.00;98349.31;4168176;28;20724;-83
2023/08/16 01:38:44;;;;;;;7.07;6.00;;;;;;;20.91;100.00;98342.81;4164457;28;20642;-83
2023/08/16 01:40:52;;;;;;;7.87;5.93;;;;;;;20.90;100.00;98346.47;4172277;28;20638;-82
2023/08/16 01:42:57;;;;;;;7.00;6.00;;;;;;;20.91;100.00;98348.13;4170520;28;20661;-83
2023/08/16 01:45:02;;;;;;;6.83;5.67;;;;;;;20.92;100.00;98352.44;4174604;28;21033;-84
2023/08/16 01:47:05;;;;;;;6.40;5.67;;;;;;;20.89;100.00;98355.41;4164198;28;20667;-84
2023/08/16 01:49:08;;;;;;;7.43;6.43;;;;;;;20.88;100.00;98351.09;4176135;28;20675;-83
2023/08/16 01:51:11;;;;;;;7.43;6.73;;;;;;;20.87;100.00;98334.34;4178094;28;20636;-83
2023/08/16 01:53:14;;;;;;;7.20;5.63;;;;;;;20.85;100.00;98338.16;4164015;28;20628;-81
2023/08/16 01:55:17;;;;;;;6.10;5.30;;;;;;;20.81;100.00;98332.34;4175333;28;20638;-83
2023/08/16 01:57:23;;;;;;;8.10;5.43;;;;;;;20.75;100.00;98326.03;4172744;28;20668;-84
2023/08/16 01:59:28;;;;;;;9.23;5.53;;;;;;;20.66;100.00;98319.84;4154070;28;20702;-83
2023/08/16 02:01:31;;;;;;;11.60;6.10;;;;;;;20.62;100.00;98323.81;4162300;28;20697;-83
2023/08/16 02:03:34;;;;;;;6.40;5.80;;;;;;;20.60;100.00;98322.31;4161468;28;20630;-83
2023/08/16 02:05:37;;;;;;;9.63;5.77;;;;;;;20.60;100.00;98320.50;4165270;28;20670;-82
2023/08/16 02:07:40;;;;;;;7.27;6.57;;;;;;;20.60;100.00;98324.97;4155188;28;20643;-80
2023/08/16 02:09:43;;;;;;;7.83;6.10;;;;;;;20.56;100.00;98323.63;4160343;28;20639;-83
2023/08/16 02:11:49;;;;;;;8.40;5.83;;;;;;;20.55;100.00;98322.81;4168220;28;20616;-82
2023/08/16 02:13:52;;;;;;;6.73;5.50;;;;;;;20.54;100.00;98326.44;4161112;28;20665;-83
2023/08/16 02:16:05;;;;;;;6.90;6.20;;;;;;;20.57;100.00;98322.66;4173065;28;20622;-82
2023/08/16 02:18:10;;;;;;;6.57;5.87;;;;;;;20.56;100.00;98327.09;4189460;28;20630;-81
2023/08/16 02:20:14;;;;;;;10.30;5.30;;;;;;;20.55;100.00;98320.16;4175084;28;20600;-83
2023/08/16 02:22:17;;;;;;;9.00;6.37;;;;;;;20.54;100.00;98328.28;4151775;28;20743;-84
2023/08/16 02:24:22;;;;;;;8.23;6.40;;;;;;;20.53;100.00;98335.38;4161042;28;20616;-83
2023/08/16 02:26:24;;;;;;;7.37;6.53;;;;;;;20.54;100.00;98329.09;4171255;28;20616;-83
2023/08/16 02:28:28;;;;;;;6.97;5.97;;;;;;;20.53;100.00;98323.94;4170866;28;20650;-75
2023/08/16 02:30:31;;;;;;;8.33;5.90;;;;;;;20.47;100.00;98321.94;4173006;28;20653;-75
2023/08/16 02:32:37;;;;;;;6.27;5.67;;;;;;;20.44;100.00;98322.25;4172094;28;20604;-75
2023/08/16 02:34:41;;;;;;;5.83;5.23;;;;;;;20.43;100.00;98315.28;4160860;28;20631;-75
2023/08/16 02:36:44;;;;;;;6.60;5.83;;;;;;;20.43;100.00;98315.28;4179668;28;20626;-74
2023/08/16 02:38:47;;;;;;;7.50;5.50;;;;;;;20.44;100.00;98309.00;4175901;28;21072;-75
2023/08/16 02:40:50;;;;;;;6.87;6.00;;;;;;;20.42;100.00;98311.81;4166757;28;20734;-74
2023/08/16 02:42:53;;;;;;;6.33;5.70;;;;;;;20.43;100.00;98310.84;4159136;28;20654;-76
2023/08/16 02:44:58;;;;;;;6.70;5.70;;;;;;;20.43;100.00;98308.19;4170219;28;20618;-75
2023/08/16 02:47:01;;;;;;;6.83;5.90;;;;;;;20.42;100.00;98303.03;4168194;28;21635;-74
2023/08/16 02:49:05;;;;;;;6.17;5.10;;;;;;;20.41;100.00;98304.03;4172824;28;20646;-75
2023/08/16 02:51:08;;;;;;;6.30;5.17;;;;;;;20.38;100.00;98305.16;4160120;28;20629;-75
2023/08/16 02:53:11;;;;;;;6.90;5.80;;;;;;;20.37;100.00;98303.53;4169020;28;20621;-76
2023/08/16 02:55:15;;;;;;;6.90;6.20;;;;;;;20.34;100.00;98309.13;4160432;28;20640;-74
2023/08/16 02:57:18;;;;;;;5.90;5.40;;;;;;;20.36;100.00;98317.75;4169213;28;20667;-75
2023/08/16 02:59:21;;;;;;;8.20;6.00;;;;;;;20.35;100.00;98313.44;4172414;28;20676;-75
2023/08/16 03:01:24;;;;;;;6.37;5.67;;;;;;;20.36;100.00;98311.63;4166528;28;21189;-76
2023/08/16 03:03:27;;;;;;;6.43;5.83;;;;;;;20.36;100.00;98304.50;4172060;28;21068;-75
2023/08/16 03:05:31;;;;;;;7.80;6.20;;;;;;;20.36;100.00;98303.69;4161923;28;20723;-76
2023/08/16 03:07:34;;;;;;;8.30;6.07;;;;;;;20.34;100.00;98309.13;4166911;28;20692;-74
2023/08/16 03:09:38;;;;;;;7.33;5.73;;;;;;;20.36;100.00;98308.97;4172979;28;20624;-75
2023/08/16 03:11:41;;;;;;;6.77;5.57;;;;;;;20.37;100.00;98314.13;4157696;28;20627;-75
2023/08/16 03:13:44;;;;;;;6.10;5.37;;;;;;;20.37;100.00;98313.25;4172688;28;21229;-76
2023/08/16 03:15:47;;;;;;;8.97;5.70;;;;;;;20.36;100.00;98311.63;4155079;28;21029;-75
2023/08/16 03:17:51;;;;;;;7.37;6.33;;;;;;;20.36;100.00;98319.56;4173397;28;20641;-75
2023/08/16 03:19:55;;;;;;;6.47;5.77;;;;;;;20.34;100.00;98314.44;4160659;28;20701;-75
2023/08/16 03:22:00;;;;;;;8.27;6.50;;;;;;;20.35;100.00;98320.56;4173130;28;21029;-75
2023/08/16 03:24:03;;;;;;;6.47;5.67;;;;;;;20.33;100.00;98322.53;4177546;28;20657;-75
2023/08/16 03:26:07;;;;;;;6.63;6.00;;;;;;;20.31;100.00;98319.19;4177527;28;20645;-76
2023/08/16 03:28:11;;;;;;;7.50;6.13;;;;;;;20.32;100.00;98320.06;4177412;28;20785;-75
2023/08/16 03:30:14;;;;;;;6.90;6.20;;;;;;;20.31;100.00;98321.84;4168764;28;20663;-75
2023/08/16 03:32:18;;;;;;;6.43;5.53;;;;;;;20.32;100.00;98325.34;4167838;28;21184;-74
2023/08/16 03:34:24;;;;;;;7.07;5.87;;;;;;;20.31;100.00;98326.34;4169624;28;20677;-75
2023/08/16 03:36:28;;;;;;;9.67;5.83;;;;;;;20.32;100.00;98336.78;4169962;28;20633;-75
2023/08/16 03:38:35;;;;;;;7.03;5.53;;;;;;;20.32;100.00;98341.25;4157612;28;20974;-74
2023/08/16 03:40:39;;;;;;;8.10;5.97;;;;;;;20.31;100.00;98345.69;4172443;28;21047;-74
2023/08/16 03:42:41;;;;;;;6.83;6.07;;;;;;;20.31;100.00;98344.88;4167644;28;20766;-75
2023/08/16 03:44:45;;;;;;;8.43;5.40;;;;;;;20.29;100.00;98357.47;4171191;28;20733;-74
2023/08/16 03:46:48;;;;;;;6.00;5.43;;;;;;;20.29;100.00;98362.75;4173357;28;20638;-74
2023/08/16 03:48:51;;;;;;;7.20;5.50;;;;;;;20.28;100.00;98372.50;4167883;28;20625;-75
2023/08/16 03:50:54;;;;;;;6.77;5.77;;;;;;;20.26;100.00;98373.69;4166950;28;20674;-75
2023/08/16 03:52:57;;;;;;;8.60;6.10;;;;;;;20.23;100.00;98380.13;4169652;28;20692;-75
2023/08/16 03:55:03;;;;;;;7.03;6.33;;;;;;;20.24;100.00;98389.72;4170974;28;20645;-74
2023/08/16 03:57:06;;;;;;;11.13;7.00;;;;;;;20.25;100.00;98398.50;4166766;28;20634;-75
2023/08/16 03:59:09;;;;;;;5.97;5.47;;;;;;;20.26;100.00;98411.59;4170165;28;20645;-74
2023/08/16 04:01:11;;;;;;;6.90;6.10;;;;;;;20.28;100.00;98411.44;4173219;28;20681;-75
2023/08/16 04:03:14;;;;;;;7.30;5.77;;;;;;;20.28;100.00;98406.97;4167006;28;21123;-77
2023/08/16 04:05:21;;;;;;;6.50;5.90;;;;;;;20.29;100.00;98405.16;4161484;28;20651;-76
2023/08/16 04:07:24;;;;;;;7.70;6.17;;;;;;;20.29;100.00;98407.81;4168354;28;20986;-75
2023/08/16 04:09:28;;;;;;;6.20;5.60;;;;;;;20.28;100.00;98414.91;4156606;28;21202;-75
2023/08/16 04:11:33;;;;;;;7.03;6.33;;;;;;;20.28;100.00;98427.34;4177941;28;21017;-75
2023/08/16 04:13:36;;;;;;;6.50;5.80;;;;;;;20.29;100.00;98437.78;4161349;28;20652;-75
2023/08/16 04:15:40;;;;;;;7.10;5.80;;;;;;;20.31;100.00;98450.88;4173175;28;20704;-74
2023/08/16 04:17:43;;;;;;;6.87;5.77;;;;;;;20.33;100.00;98449.75;4174812;28;20663;-75
2023/08/16 04:19:46;;;;;;;6.97;6.33;;;;;;;20.35;100.00;98447.75;4169688;28;20628;-75
2023/08/16 04:21:50;;;;;;;5.93;5.33;;;;;;;20.36;100.00;98450.25;4161018;28;20630;-75
2023/08/16 04:23:54;;;;;;;6.10;5.50;;;;;;;20.38;100.00;98458.88;4170081;28;21087;-75
2023/08/16 04:25:57;;;;;;;6.77;6.13;;;;;;;20.39;100.00;98457.06;4176717;28;20658;-75
2023/08/16 04:28:02;;;;;;;5.97;5.37;;;;;;;20.35;100.00;98459.19;4177685;28;20630;-75
2023/08/16 04:30:05;;;;;;;6.53;5.47;;;;;;;20.33;100.00;98474.41;4167497;28;20712;-75
2023/08/16 04:32:08;;;;;;;8.17;6.03;;;;;;;20.33;100.00;98486.84;4171892;28;20678;-74
2023/08/16 04:34:12;;;;;;;5.87;5.30;;;;;;;20.34;100.00;98483.19;4175613;28;20632;-75
2023/08/16 04:36:15;;;;;;;6.30;5.40;;;;;;;20.36;100.00;98486.53;4175761;28;20717;-75
2023/08/16 04:38:18;;;;;;;6.00;5.40;;;;;;;20.36;100.00;98479.41;4160972;28;20658;-77
2023/08/16 04:40:21;;;;;;;8.03;6.73;;;;;;;20.36;100.00;98475.94;4155661;28;20732;-75
2023/08/16 04:42:24;;;;;;;6.80;5.33;;;;;;;20.32;100.00;98487.81;4170641;28;20683;-74
2023/08/16 04:44:28;;;;;;;6.70;6.00;;;;;;;20.27;100.00;98482.16;4160367;28;20641;-74
2023/08/16 04:46:31;;;;;;;9.47;6.07;;;;;;;20.27;100.00;98486.63;4160566;28;21174;-76
2023/08/16 04:48:35;;;;;;;8.00;5.97;;;;;;;20.22;100.00;98489.75;4173311;28;20628;-83
2023/08/16 04:50:39;;;;;;;6.50;5.50;;;;;;;20.18;100.00;98492.88;4176321;28;20642;-83
2023/08/16 04:52:43;;;;;;;7.27;5.87;;;;;;;20.12;100.00;98482.88;4154895;28;20622;-82
2023/08/16 04:54:46;;;;;;;7.50;6.30;;;;;;;20.11;100.00;98486.50;4168710;28;20630;-83
2023/08/16 04:56:50;;;;;;;6.53;5.87;;;;;;;20.12;100.00;98482.88;4167297;28;20625;-82
2023/08/16 04:58:55;;;;;;;8.37;6.40;;;;;;;20.14;100.00;98486.19;4172677;28;20779;-83
2023/08/16 05:01:00;;;;;;;6.83;5.60;;;;;;;20.15;100.00;98478.09;4152951;28;20747;-83
2023/08/16 05:03:05;;;;;;;7.27;6.50;;;;;;;20.18;100.00;98479.63;4156432;28;20670;-82
2023/08/16 05:05:10;;;;;;;8.57;6.30;;;;;;;20.18;100.00;98482.28;4160710;28;20986;-81
2023/08/16 05:07:14;;;;;;;12.53;7.07;;;;;;;20.21;100.00;98489.91;4158353;28;20630;-83
2023/08/16 05:09:17;;;;;;;7.20;6.50;;;;;;;20.25;100.00;98483.28;4169257;28;20625;-83
2023/08/16 05:11:20;;;;;;;9.40;6.33;;;;;;;20.28;100.00;98478.50;4177090;28;20681;-84
2023/08/16 05:13:23;;;;;;;11.30;6.27;;;;;;;20.31;100.00;98478.19;4171202;28;20729;-83
2023/08/16 05:15:27;;;;;;;7.20;6.07;;;;;;;20.35;100.00;98475.09;4168128;28;21608;-83
2023/08/16 05:17:31;;;;;;;6.80;5.97;;;;;;;20.39;100.00;98468.50;4160379;28;20626;-84
2023/08/16 05:19:34;;;;;;;6.90;6.10;;;;;;;20.43;100.00;98463.69;4168810;28;20667;-83
2023/08/16 05:21:38;;;;;;;7.70;6.70;;;;;;;20.45;100.00;98467.88;4164409;28;20646;-84
2023/08/16 05:23:41;;;;;;;7.80;6.23;;;;;;;20.47;100.00;98452.63;4166765;28;20664;-84
2023/08/16 05:25:44;;;;;;;7.40;6.40;;;;;;;20.51;100.00;98453.16;4169945;28;20768;-83
2023/08/16 05:27:47;;;;;;;6.53;5.93;;;;;;;20.64;100.00;98442.94;4169247;28;20773;-83
2023/08/16 05:29:50;;;;;;;8.57;7.07;;;;;;;20.83;100.00;98435.63;4152565;28;20753;-84
2023/08/16 05:31:54;;;;;;;7.30;5.73;;;;;;;21.05;100.00;98441.19;4164379;28;20751;-84
2023/08/16 05:33:58;;;;;;;7.17;6.20;;;;;;;21.26;100.00;98441.59;4171069;28;20671;-83
2023/08/16 05:36:01;;;;;;;7.03;6.33;;;;;;;21.47;100.00;98431.34;4165805;28;20639;-84
2023/08/16 05:38:05;;;;;;;8.23;6.20;;;;;;;21.65;100.00;98427.56;4169503;28;20650;-83
2023/08/16 05:40:09;;;;;;;7.47;6.40;;;;;;;21.88;100.00;98428.56;4157693;28;20667;-83
2023/08/16 05:42:12;;;;;;;9.30;5.73;;;;;;;22.07;100.00;98420.25;4166992;28;20720;-84
2023/08/16 05:44:14;;;;;;;8.90;6.70;;;;;;;;;;4176787;28;21014;-83
2023/08/16 05:46:17;;;;;;;8.93;8.03;;;;;;;22.51;100.00;98427.69;4154860;28;20640;-83
2023/08/16 05:48:21;;;;;;;5.97;5.30;;;;;;;22.76;100.00;98416.78;4164049;28;20623;-84
2023/08/16 05:50:25;;;;;;;7.67;6.70;;;;;;;22.97;100.00;98411.75;4169584;28;21074;-83
2023/08/16 05:52:28;;;;;;;7.43;6.13;;;;;;;23.19;99.54;98412.63;4167990;28;21036;-84
2023/08/16 05:54:31;;;;;;;8.10;6.10;;;;;;;23.44;98.56;98398.16;4167774;28;20808;-84
2023/08/16 05:56:34;;;;;;;9.07;5.87;;;;;;;23.67;97.51;98407.03;4176637;28;20668;-84
2023/08/16 05:58:38;;;;;;;5.93;5.33;;;;;;;23.90;97.16;98407.81;4170090;28;20630;-81
2023/08/16 06:00:41;;;;;;;6.60;5.80;;;;;;;24.09;96.65;98399.34;4170646;28;20735;-83
2023/08/16 06:02:44;;;;;;;6.20;5.60;;;;;;;24.32;95.37;98398.25;4169896;28;21279;-83
2023/08/16 06:04:47;;;;;;;6.87;6.13;;;;;;;24.56;95.04;98396.19;4167232;28;20703;-83
2023/08/16 06:06:51;;;;;;;5.60;4.97;;;;;;;24.79;93.65;98396.91;4154151;28;20731;-82
2023/08/16 06:08:54;;;;;;;6.20;5.23;;;;;;;25.01;92.35;98402.16;4169798;28;21221;-83
2023/08/16 06:10:57;;;;;;;6.47;5.77;;;;;;;25.14;91.80;98405.81;4168741;28;20652;-83
2023/08/16 06:13:01;;;;;;;7.73;5.50;;;;;;;25.26;91.68;98417.69;4167430;28;20611;-84
2023/08/16 06:15:11;;;;;;;9.43;6.10;;;;;;;25.20;91.23;98426.44;4168973;28;20627;-84
2023/08/16 06:17:14;;;;;;;5.13;4.63;;;;;;;25.08;91.64;98423.59;4174617;28;20646;-83
2023/08/16 06:19:17;;;;;;;7.33;5.00;;;;;;;25.19;91.97;98430.13;4162186;28;20638;-84
2023/08/16 06:21:20;;;;;;;7.23;5.47;;;;;;;25.26;92.28;98432.91;4167900;28;20642;-84
2023/08/16 06:23:24;;;;;;;6.10;5.50;;;;;;;25.36;92.29;98431.56;4167550;28;20630;-82
2023/08/16 06:25:27;;;;;;;6.17;5.13;;;;;;;25.59;90.84;98432.25;4164559;28;20613;-83
2023/08/16 06:27:29;;;;;;;5.03;4.53;;;;;;;25.87;90.79;98441.19;4159025;28;21250;-82
2023/08/16 06:29:33;;;;;;;5.30;4.80;;;;;;;26.09;89.50;98441.81;4159644;28;21003;-83
2023/08/16 06:31:36;;;;;;;5.80;5.20;;;;;;;26.28;86.08;98435.00;4161147;28;20694;-83
2023/08/16 06:33:39;;;;;;;6.30;5.60;;;;;;;26.46;85.91;98440.69;4172040;28;20637;-83
2023/08/16 06:35:41;;;;;;;6.70;5.80;;;;;;;26.49;84.52;98435.81;4170551;28;20695;-83
2023/08/16 06:37:46;;;;;;;6.93;6.23;;;;;;;26.37;84.51;98436.50;4171182;28;20731;-83
2023/08/16 06:39:50;;;;;;;8.70;5.57;;;;;;;26.25;85.39;98421.97;4173585;28;20624;-82
2023/08/16 06:41:53;;;;;;;6.07;5.47;;;;;;;26.25;86.90;98420.16;4175490;28;20624;-82
2023/08/16 06:43:56;;;;;;;6.83;6.13;;;;;;;26.18;87.53;98421.09;4172120;28;20621;-83
2023/08/16 06:45:59;;;;;;;6.60;6.00;;;;;;;26.09;89.28;98419.59;4177972;28;20670;-83
2023/08/16 06:48:03;;;;;;;9.30;5.70;;;;;;;26.05;89.37;98422.84;4170548;28;20663;-84
2023/08/16 06:50:07;;;;;;;7.60;6.87;;;;;;;25.97;88.04;98421.13;4174087;28;20653;-84
2023/08/16 06:52:10;;;;;;;15.40;6.67;;;;;;;25.93;87.82;98427.06;4170771;28;20663;-83
2023/08/16 06:54:14;;;;;;;6.40;5.80;;;;;;;25.91;89.86;98427.25;4159918;28;20625;-83
2023/08/16 06:56:18;;;;;;;6.10;5.40;;;;;;;25.93;90.75;98421.72;4176883;28;20685;-83
2023/08/16 06:58:21;;;;;;;6.17;5.57;;;;;;;25.99;89.59;98428.97;4180149;28;20624;-82
2023/08/16 07:00:24;;;;;;;5.90;5.30;;;;;;;26.03;89.22;98427.56;4155482;28;20636;-83
2023/08/16 07:02:28;;;;;;;6.10;5.47;;;;;;;26.09;89.60;98438.31;4177516;28;20629;-81
2023/08/16 07:04:34;;;;;;;6.53;5.93;;;;;;;26.03;89.54;98431.06;4170597;28;20681;-84
2023/08/16 07:06:37;;;;;;;6.40;5.60;;;;;;;25.99;89.27;98431.63;4173463;28;20629;-83
2023/08/16 07:08:40;;;;;;;7.57;5.40;;;;;;;25.93;89.91;98430.53;4168170;28;21216;-76
2023/08/16 07:10:44;;;;;;;6.83;5.97;;;;;;;25.89;89.89;98433.78;4172429;28;20707;-75
2023/08/16 07:12:49;;;;;;;6.90;6.30;;;;;;;25.80;90.87;98430.44;4175803;28;20618;-75
2023/08/16 07:14:52;;;;;;;6.23;5.70;;;;;;;25.75;91.64;98429.34;4171557;28;20640;-74
2023/08/16 07:16:55;;;;;;;8.47;5.53;;;;;;;25.67;91.93;98426.81;4168419;28;20664;-76
2023/08/16 07:18:58;;;;;;;6.50;5.80;;;;;;;25.65;92.43;98426.19;4170418;28;20635;-75
2023/08/16 07:21:01;;;;;;;8.63;6.50;;;;;;;25.64;93.61;98435.19;4170564;28;20621;-75
2023/08/16 07:23:06;;;;;;;7.23;6.50;;;;;;;25.61;93.68;98430.19;4170264;28;20720;-76
2023/08/16 07:25:11;;;;;;;6.27;5.67;;;;;;;25.60;92.89;98425.88;4169635;28;20653;-76
2023/08/16 07:27:14;;;;;;;7.43;6.60;;;;;;;25.59;92.89;98433.06;4170247;28;20646;-75
2023/08/16 07:29:19;;;;;;;7.30;6.60;;;;;;;25.62;93.99;98440.72;4177245;28;20629;-75
2023/08/16 07:31:22;;;;;;;7.93;6.70;;;;;;;25.70;94.69;98439.78;4171520;28;20629;-75
2023/08/16 07:33:25;;;;;;;9.20;6.80;;;;;;;25.98;93.21;98448.69;4171731;28;20632;-75
2023/08/16 07:35:27;;;;;;;6.77;6.07;;;;;;;26.42;91.21;98442.13;4172218;28;20629;-75
2023/08/16 07:37:32;;;;;;;6.80;6.13;;;;;;;26.66;91.54;98451.34;4169788;28;20724;-76
2023/08/16 07:39:35;;;;;;;7.90;6.73;;;;;;;26.72;89.29;98447.06;4152597;28;20684;-75
2023/08/16 07:41:38;;;;;;;7.30;6.60;;;;;;;26.82;88.79;98444.84;4172108;28;20702;-75
2023/08/16 07:43:42;;;;;;;7.10;6.40;;;;;;;27.22;91.80;98448.38;4178420;28;20637;-76
2023/08/16 07:45:46;;;;;;;6.80;6.20;;;;;;;27.65;88.25;98450.66;4161419;28;20716;-76
2023/08/16 07:47:49;;;;;;;6.63;5.93;;;;;;;27.98;86.11;98456.06;4149623;28;20683;-76
2023/08/16 07:49:54;;;;;;;6.93;6.23;;;;;;;28.11;86.33;98456.94;4170980;28;20739;-75
2023/08/16 07:51:57;;;;;;;7.70;6.83;;;;;;;27.95;84.87;98445.75;4168934;28;20846;-75
2023/08/16 07:54:01;;;;;;;6.80;6.10;;;;;;;27.81;84.61;98450.25;4170540;28;20618;-75
2023/08/16 07:56:04;;;;;;;6.63;6.00;;;;;;;27.79;84.39;98440.78;4168361;28;20625;-75
2023/08/16 07:58:07;;;;;;;7.20;6.13;;;;;;;27.76;83.49;98447.38;4171318;28;20617;-76
2023/08/16 08:00:13;;;;;;;9.40;7.53;;;;;;;27.78;86.11;98442.63;4166510;28;20629;-75
2023/08/16 08:02:17;;;;;;;7.13;6.47;;;;;;;27.82;86.34;98449.25;4171837;28;20623;-76
2023/08/16 08:04:20;;;;;;;7.30;6.60;;;;;;;27.76;86.13;98442.00;4169503;28;20981;-75
2023/08/16 08:06:23;;;;;;;10.13;7.30;;;;;;;27.76;86.29;98446.56;4172430;28;20950;-76
2023/08/16 08:08:26;;;;;;;7.40;6.73;;;;;;;27.69;85.46;98441.16;4169131;28;20671;-76
2023/08/16 08:10:31;;;;;;;9.13;6.80;;;;;;;27.67;86.27;98442.41;4166473;28;20762;-76
2023/08/16 08:12:34;;;;;;;7.20;6.50;;;;;;;27.63;86.91;98447.34;4173940;28;20655;-75
2023/08/16 08:14:38;;;;;;;8.10;7.30;;;;;;;27.73;87.88;98455.00;4168510;28;20691;-76
2023/08/16 08:16:41;;;;;;;17.60;7.40;;;;;;;27.83;88.00;98458.94;4170911;28;20712;-75
2023/08/16 08:18:45;;;;;;;6.97;6.30;;;;;;;27.92;87.12;98459.56;4171478;28;21197;-76
2023/08/16 08:20:48;;;;;;;7.80;6.50;;;;;;;28.14;86.28;98460.03;4169604;28;20624;-83
2023/08/16 08:22:51;;;;;;;6.93;6.33;;;;;;;28.54;85.77;98461.72;4170403;28;20623;-84
2023/08/16 08:24:54;;;;;;;12.47;6.27;;;;;;;28.78;82.88;98461.09;4169447;28;20610;-83
2023/08/16 08:26:57;;;;;;;10.87;6.53;;;;;;;28.98;82.98;98456.50;4178070;28;21219;-83
2023/08/16 08:29:00;;;;;;;7.27;6.43;;;;;;;29.09;81.28;98449.44;4168786;28;20992;-82
2023/08/16 08:31:04;;;;;;;7.30;6.50;;;;;;;29.17;80.55;98446.50;4169804;28;20639;-84
2023/08/16 08:33:07;;;;;;;7.33;6.13;;;;;;;29.31;80.68;98442.75;4169708;28;20753;-80
2023/08/16 08:35:12;;;;;;;7.83;6.63;;;;;;;29.45;81.75;98449.72;4174475;28;20620;-84
2023/08/16 08:37:15;;;;;;;7.50;6.80;;;;;;;29.49;80.41;98448.28;4174104;28;20988;-82
2023/08/16 08:39:19;;;;;;;7.27;5.87;;;;;;;29.56;80.33;98443.69;4171427;28;20635;-83
2023/08/16 08:41:23;;;;;;;7.43;6.70;;;;;;;29.66;79.35;98446.72;4166682;28;20682;-79
2023/08/16 08:43:40;;;;;;;8.00;6.60;;;;;;;29.73;79.20;98445.66;4172791;28;21184;-83
2023/08/16 08:46:01;;;;;;;7.03;6.30;;;;;;;29.83;80.47;98445.22;4172025;28;21237;-84
2023/08/16 08:48:05;;;;;;;8.67;7.43;;;;;;;30.03;79.99;98444.06;4174923;28;20716;-81
2023/08/16 08:50:09;;;;;;;7.60;6.80;;;;;;;30.19;82.14;98449.72;4172925;28;20636;-81
2023/08/16 08:52:14;;;;;;;6.60;6.00;;;;;;;30.34;81.58;98447.56;4170892;28;20639;-81
2023/08/16 08:54:17;;;;;;;7.13;6.50;;;;;;;30.44;79.80;98447.88;4172334;28;20715;-81
2023/08/16 08:56:21;;;;;;;8.03;6.90;;;;;;;30.59;77.61;98451.88;4172588;28;21186;-82
2023/08/16 08:58:25;;;;;;;6.60;6.00;;;;;;;30.61;75.76;98454.34;4161132;28;20679;-81
2023/08/16 09:00:28;;;;;;;6.83;5.90;;;;;;;30.52;76.33;98444.91;4160160;28;20651;-81
2023/08/16 09:02:33;;;;;;;7.90;5.80;;;;;;;30.47;75.36;98442.06;4174961;28;21024;-81
2023/08/16 09:04:37;;;;;;;7.30;6.60;;;;;;;30.42;75.50;98441.06;4176464;28;20699;-84
2023/08/16 09:06:40;;;;;;;6.37;5.77;;;;;;;30.38;75.59;98446.06;4174586;28;21049;-80
2023/08/16 09:08:45;;;;;;;7.10;6.40;;;;;;;30.45;76.08;98444.16;4152420;28;20676;-83
2023/08/16 09:10:50;;;;;;;7.00;6.37;;;;;;;30.37;75.63;98447.13;4172107;28;21016;-83
2023/08/16 09:12:53;;;;;;;8.30;7.13;;;;;;;30.23;76.93;98442.03;4172522;28;20642;-84
2023/08/16 09:14:57;;;;;;;7.70;6.00;;;;;;;29.88;76.93;98434.63;4170974;28;20634;-81
2023/08/16 09:17:00;;;;;;;7.00;6.30;;;;;;;29.57;77.91;98424.66;4174906;28;20986;-82
2023/08/16 09:19:03;;;;;;;11.43;6.10;;;;;;;29.37;77.77;98433.84;4170283;28;20671;-81
2023/08/16 09:21:07;;;;;;;7.23;6.53;;;;;;;29.13;79.19;98423.78;4156378;28;21057;-81
2023/08/16 09:23:13;;;;;;;7.23;6.03;;;;;;;28.93;79.31;98416.81;4170027;28;21198;-80
2023/08/16 09:25:17;;;;;;;8.60;6.73;;;;;;;28.70;79.26;98415.63;4171269;28;20632;-81
2023/08/16 09:27:21;;;;;;;10.00;6.33;;;;;;;28.58;80.89;98420.81;4168787;28;20699;-81
2023/08/16 09:29:24;;;;;;;7.07;6.37;;;;;;;28.56;81.45;98413.97;4172168;28;20633;-74
2023/08/16 09:31:29;;;;;;;7.00;6.30;;;;;;;28.59;81.37;98414.38;4169148;28;21090;-73
2023/08/16 09:33:34;;;;;;;8.23;7.17;;;;;;;28.61;82.40;98409.66;4167490;28;20638;-74
2023/08/16 09:35:39;;;;;;;6.97;6.37;;;;;;;28.53;82.71;98409.03;4153040;28;20657;-75
2023/08/16 09:37:42;;;;;;;7.10;6.40;;;;;;;28.56;82.29;98403.25;4167210;28;20628;-74
2023/08/16 09:39:45;;;;;;;7.10;6.50;;;;;;;28.64;81.83;98400.31;4155034;28;20627;-75